Time;durP1;ratioP1;P1;durP2;ratioP2;P2;SDS_P1;SDS_P2;PMS_P1;PMS_P2;Temp;Humidity;BMP_temperature;BMP_pressure;BME280_temperature;BME280_humidity;BME280_pressure;Samples;Min_cycle;Max_cycle;Signal;HPM_P1;HPM_P2
2022/09/29 00:02:20;;;;;;;;;;;19.70;99.90;;;;;;5007903;28;19925;-66
2022/09/29 00:04:47;;;;;;;;;;;19.70;99.90;;;;;;5000825;28;20348;-68
2022/09/29 00:07:14;;;;;;;;;;;19.70;99.90;;;;;;4999921;28;19933;-68
2022/09/29 00:09:41;;;;;;;;;;;19.70;99.90;;;;;;4997706;28;19930;-68
2022/09/29 00:12:08;;;;;;;;;;;19.70;99.90;;;;;;4992274;28;19937;-68
2022/09/29 00:14:35;;;;;;;;;;;19.70;99.90;;;;;;4997379;28;19940;-67
2022/09/29 00:17:02;;;;;;;;;;;19.70;99.90;;;;;;4998479;28;19930;-68
2022/09/29 00:19:32;;;;;;;;;;;19.70;99.90;;;;;;5018592;28;19930;-68
2022/09/29 00:21:59;;;;;;;;;;;19.60;99.90;;;;;;5009913;28;19914;-68
2022/09/29 00:24:26;;;;;;;;;;;19.60;99.90;;;;;;5020708;28;19930;-69
2022/09/29 00:26:53;;;;;;;;;;;19.60;99.90;;;;;;4999603;28;19930;-67
2022/09/29 00:29:20;;;;;;;;;;;19.60;99.90;;;;;;5016670;28;19930;-67
2022/09/29 00:31:47;;;;;;;;;;;19.60;99.90;;;;;;4999718;28;19936;-67
2022/09/29 00:34:15;;;;;;;;;;;19.60;99.90;;;;;;5002051;28;19934;-65
2022/09/29 00:36:42;;;;;;;;;;;19.60;99.90;;;;;;5003515;28;19940;-67
2022/09/29 00:39:09;;;;;;;;;;;19.60;99.90;;;;;;5002241;28;19929;-67
2022/09/29 00:41:37;;;;;;;;;;;19.60;99.90;;;;;;5000474;28;19936;-67
2022/09/29 00:44:13;;;;;;;;;;;19.60;99.90;;;;;;4998706;28;19925;-67
2022/09/29 00:46:43;;;;;;;;;;;19.60;99.90;;;;;;4994358;28;19925;-68
2022/09/29 00:49:13;;;;;;;;;;;19.60;99.90;;;;;;5002742;28;19930;-67
2022/09/29 00:51:43;;;;;;;;;;;19.60;99.90;;;;;;4991378;28;20269;-67
2022/09/29 00:54:10;;;;;;;;;;;19.60;99.90;;;;;;4993672;28;19926;-66
2022/09/29 00:56:38;;;;;;;;;;;19.60;99.90;;;;;;4991736;28;19930;-66
2022/09/29 00:59:11;;;;;;;;;;;19.50;99.90;;;;;;5000820;28;20420;-67
2022/09/29 01:01:38;;;;;;;;;;;19.50;99.90;;;;;;4989713;28;19937;-67
2022/09/29 01:04:08;;;;;;;;;;;19.60;99.90;;;;;;4979927;28;20416;-67
2022/09/29 01:06:37;;;;;;;;;;;19.50;99.90;;;;;;4992990;28;20433;-67
2022/09/29 01:09:05;;;;;;;;;;;19.60;99.90;;;;;;5000621;28;19925;-66
2022/09/29 01:11:32;;;;;;;;;;;19.50;99.90;;;;;;4994914;28;19936;-67
2022/09/29 01:14:03;;;;;;;;;;;19.60;99.90;;;;;;4998409;28;20135;-67
2022/09/29 01:16:31;;;;;;;;;;;19.50;99.90;;;;;;4974368;28;19929;-67
2022/09/29 01:19:00;;;;;;;;;;;19.50;99.90;;;;;;4995448;28;19941;-66
2022/09/29 01:21:30;;;;;;;;;;;19.50;99.90;;;;;;5005153;28;19930;-66
2022/09/29 01:24:07;;;;;;;;;;;19.50;99.90;;;;;;4998763;28;19926;-67
2022/09/29 01:26:55;;;;;;;;;;;19.50;99.90;;;;;;4989812;28;19925;-66
2022/09/29 01:29:25;;;;;;;;;;;19.50;99.90;;;;;;4999922;28;19930;-66
2022/09/29 01:32:04;;;;;;;;;;;19.50;99.90;;;;;;4990921;28;19938;-66
2022/09/29 01:34:37;;;;;;;;;;;19.50;99.90;;;;;;4998905;28;19954;-65
2022/09/29 01:37:20;;;;;;;;;;;19.50;99.90;;;;;;4989667;28;20318;-67
2022/09/29 01:39:56;;;;;;;;;;;19.50;99.90;;;;;;5001401;28;19930;-68
2022/09/29 01:42:29;;;;;;;;;;;19.50;99.90;;;;;;5010676;28;19930;-68
2022/09/29 01:45:04;;;;;;;;;;;19.50;99.90;;;;;;5007187;28;19937;-67
2022/09/29 01:47:35;;;;;;;;;;;19.50;99.90;;;;;;5011638;28;19933;-66
2022/09/29 01:50:05;;;;;;;;;;;19.50;99.90;;;;;;4994741;28;19937;-67
2022/09/29 01:52:36;;;;;;;;;;;19.50;99.90;;;;;;4994621;28;19930;-64
2022/09/29 01:55:03;;;;;;;;;;;19.40;99.90;;;;;;5000413;28;19930;-67
2022/09/29 01:57:51;;;;;;;;;;;19.40;99.90;;;;;;4994234;28;19930;-67
2022/09/29 02:00:19;;;;;;;;;;;19.40;99.90;;;;;;4968577;28;20390;-67
2022/09/29 02:02:46;;;;;;;;;;;19.40;99.90;;;;;;5002503;28;19933;-68
2022/09/29 02:05:33;;;;;;;;;;;19.40;99.90;;;;;;4995475;28;19935;-66
2022/09/29 02:08:03;;;;;;;;;;;19.40;99.90;;;;;;5005213;28;19929;-68
2022/09/29 02:10:35;;;;;;;;;;;19.40;99.90;;;;;;4992782;28;19930;-69
2022/09/29 02:13:04;;;;;;;;;;;19.40;99.90;;;;;;5005752;28;19937;-67
2022/09/29 02:15:33;;;;;;;;;;;19.40;99.90;;;;;;4998833;28;19953;-65
2022/09/29 02:18:10;;;;;;;;;;;19.40;99.90;;;;;;4978486;28;19929;-68
2022/09/29 02:20:38;;;;;;;;;;;19.40;99.90;;;;;;4996504;28;19925;-67
2022/09/29 02:23:05;;;;;;;;;;;19.40;99.90;;;;;;4998912;28;19956;-68
2022/09/29 02:25:34;;;;;;;;;;;19.40;99.90;;;;;;4988546;28;19937;-66
2022/09/29 02:28:01;;;;;;;;;;;19.40;99.90;;;;;;4992463;28;19930;-65
2022/09/29 02:30:28;;;;;;;;;;;19.30;99.90;;;;;;5007377;28;19940;-66
2022/09/29 02:32:55;;;;;;;;;;;19.30;99.90;;;;;;5014753;28;19929;-68
2022/09/29 02:35:23;;;;;;;;;;;19.30;99.90;;;;;;5022525;28;19925;-67
2022/09/29 02:37:59;;;;;;;;;;;19.30;99.90;;;;;;5019646;28;19926;-68
2022/09/29 02:40:32;;;;;;;;;;;19.30;99.90;;;;;;5013671;28;19941;-68
2022/09/29 02:42:59;;;;;;;;;;;19.30;99.90;;;;;;4996034;28;19929;-67
2022/09/29 02:45:34;;;;;;;;;;;19.30;99.90;;;;;;5004700;28;20424;-66
2022/09/29 02:48:27;;;;;;;;;;;19.30;99.90;;;;;;5000829;28;19934;-66
2022/09/29 02:51:03;;;;;;;;;;;19.30;99.90;;;;;;4955952;28;19925;-65
2022/09/29 02:53:49;;;;;;;;;;;19.30;99.90;;;;;;5006157;28;19945;-65
2022/09/29 02:56:32;;;;;;;;;;;19.20;99.90;;;;;;5005783;28;19933;-65
2022/09/29 02:59:02;;;;;;;;;;;19.30;99.90;;;;;;5000390;28;19926;-65
2022/09/29 03:01:30;;;;;;;;;;;19.30;99.90;;;;;;5008967;28;20400;-66
2022/09/29 03:03:58;;;;;;;;;;;19.30;99.90;;;;;;4999956;28;19933;-66
2022/09/29 03:06:30;;;;;;;;;;;19.30;99.90;;;;;;4992911;28;20440;-66
2022/09/29 03:08:57;;;;;;;;;;;19.20;99.90;;;;;;4998751;28;19933;-67
2022/09/29 03:11:24;;;;;;;;;;;19.30;99.90;;;;;;5005105;28;19937;-67
2022/09/29 03:13:51;;;;;;;;;;;19.20;99.90;;;;;;4991868;28;19937;-68
2022/09/29 03:16:18;;;;;;;;;;;19.30;99.90;;;;;;4992640;28;19925;-68
2022/09/29 03:18:45;;;;;;;;;;;19.30;99.90;;;;;;4986638;28;19934;-67
2022/09/29 03:21:12;;;;;;;;;;;19.20;99.90;;;;;;4999701;28;20413;-67
2022/09/29 03:23:39;;;;;;;;;;;19.20;99.90;;;;;;4977387;28;19968;-67
2022/09/29 03:26:07;;;;;;;;;;;19.20;99.90;;;;;;4999644;28;19934;-67
2022/09/29 03:28:34;;;;;;;;;;;19.20;99.90;;;;;;4995662;28;19929;-68
2022/09/29 03:31:05;;;;;;;;;;;19.20;99.90;;;;;;5003096;28;19930;-67
2022/09/29 03:33:33;;;;;;;;;;;19.20;99.90;;;;;;4999439;28;20290;-67
2022/09/29 03:36:00;;;;;;;;;;;19.20;99.90;;;;;;4995428;28;19937;-66
2022/09/29 03:38:27;;;;;;;;;;;19.20;99.90;;;;;;5002559;28;19934;-66
2022/09/29 03:40:54;;;;;;;;;;;19.20;99.90;;;;;;4989554;28;19949;-67
2022/09/29 03:43:21;;;;;;;;;;;19.20;99.90;;;;;;4999628;28;19929;-67
2022/09/29 03:45:49;;;;;;;;;;;19.20;99.90;;;;;;4998949;28;20110;-67
2022/09/29 03:48:17;;;;;;;;;;;19.20;99.90;;;;;;4999809;28;19929;-68
2022/09/29 03:50:50;;;;;;;;;;;19.20;99.90;;;;;;5006176;28;19936;-67
2022/09/29 03:53:17;;;;;;;;;;;19.20;99.90;;;;;;5004093;28;19941;-68
2022/09/29 03:55:45;;;;;;;;;;;19.30;99.90;;;;;;4981323;28;19952;-67
2022/09/29 03:58:12;;;;;;;;;;;19.50;99.90;;;;;;5000159;28;19925;-66
2022/09/29 04:00:39;;;;;;;;;;;19.70;99.90;;;;;;5006619;28;19925;-65
2022/09/29 04:03:06;;;;;;;;;;;20.00;99.90;;;;;;4994395;28;19953;-66
2022/09/29 04:05:37;;;;;;;;;;;20.20;99.90;;;;;;4986718;28;20291;-67
2022/09/29 04:08:04;;;;;;;;;;;20.40;99.90;;;;;;4988319;28;19925;-68
2022/09/29 04:10:35;;;;;;;;;;;20.60;99.90;;;;;;4985572;28;20313;-66
2022/09/29 04:13:03;;;;;;;;;;;20.80;99.90;;;;;;5014496;28;20317;-66
2022/09/29 04:15:30;;;;;;;;;;;21.00;99.90;;;;;;5009851;28;19930;-66
2022/09/29 04:17:57;;;;;;;;;;;21.10;99.90;;;;;;4999396;28;20317;-68
2022/09/29 04:20:24;;;;;;;;;;;21.20;99.90;;;;;;4978915;28;19952;-67
2022/09/29 04:22:51;;;;;;;;;;;21.20;99.90;;;;;;4998576;28;19929;-68
2022/09/29 04:25:19;;;;;;;;;;;21.30;99.90;;;;;;4998207;28;19949;-66
2022/09/29 04:27:46;;;;;;;;;;;21.30;99.90;;;;;;4996023;28;19936;-65
2022/09/29 04:30:13;;;;;;;;;;;21.30;99.90;;;;;;4991203;28;19926;-67
2022/09/29 04:32:41;;;;;;;;;;;21.30;99.90;;;;;;4990607;28;19926;-67
2022/09/29 04:35:08;;;;;;;;;;;21.30;99.90;;;;;;4999363;28;19929;-66
2022/09/29 04:37:35;;;;;;;;;;;21.30;99.90;;;;;;4998356;28;19929;-66
2022/09/29 04:40:03;;;;;;;;;;;21.30;99.90;;;;;;4999744;28;20218;-68
2022/09/29 04:42:30;;;;;;;;;;;21.20;99.90;;;;;;5007795;28;19930;-67
2022/09/29 04:44:57;;;;;;;;;;;21.20;99.90;;;;;;5020181;28;19941;-67
2022/09/29 04:47:25;;;;;;;;;;;21.20;99.90;;;;;;5014928;28;19925;-68
2022/09/29 04:49:52;;;;;;;;;;;21.20;99.90;;;;;;5018127;28;19926;-68
2022/09/29 04:52:19;;;;;;;;;;;21.20;99.90;;;;;;5012727;28;19933;-66
2022/09/29 04:54:46;;;;;;;;;;;21.10;99.90;;;;;;4981499;28;20402;-67
2022/09/29 04:57:13;;;;;;;;;;;21.10;99.90;;;;;;4992354;28;19926;-69
2022/09/29 04:59:40;;;;;;;;;;;21.10;99.90;;;;;;5003355;28;19952;-68
2022/09/29 05:02:07;;;;;;;;;;;21.00;99.90;;;;;;4998280;28;19940;-66
2022/09/29 05:04:34;;;;;;;;;;;21.00;99.90;;;;;;4986568;28;19929;-66
2022/09/29 05:07:01;;;;;;;;;;;21.00;99.90;;;;;;5000224;28;19936;-66
2022/09/29 05:09:28;;;;;;;;;;;21.00;99.90;;;;;;5002988;28;19926;-67
2022/09/29 05:12:00;;;;;;;;;;;20.90;99.90;;;;;;4989235;28;20317;-67
2022/09/29 05:14:27;;;;;;;;;;;20.90;99.90;;;;;;4997013;28;20310;-67
2022/09/29 05:16:54;;;;;;;;;;;20.90;99.90;;;;;;4992579;28;19929;-64
2022/09/29 05:19:22;;;;;;;;;;;20.90;99.90;;;;;;4989004;28;20405;-66
2022/09/29 05:21:49;;;;;;;;;;;21.00;99.90;;;;;;4989611;28;20557;-66
2022/09/29 05:24:16;;;;;;;;;;;21.00;99.90;;;;;;4994932;28;19937;-67
2022/09/29 05:26:43;;;;;;;;;;;21.10;99.90;;;;;;5002352;28;19933;-66
2022/09/29 05:29:10;;;;;;;;;;;21.00;99.90;;;;;;5004172;28;19925;-66
2022/09/29 05:31:37;;;;;;;;;;;21.10;99.90;;;;;;4998796;28;19929;-65
2022/09/29 05:34:04;;;;;;;;;;;21.10;99.90;;;;;;4986510;28;19937;-66
2022/09/29 05:36:32;;;;;;;;;;;21.10;99.90;;;;;;4996312;28;19930;-64
2022/09/29 05:38:59;;;;;;;;;;;21.00;99.90;;;;;;4995881;28;19933;-67
2022/09/29 05:41:26;;;;;;;;;;;21.00;99.90;;;;;;4994567;28;19929;-66
2022/09/29 05:43:53;;;;;;;;;;;21.00;99.90;;;;;;4987560;28;20414;-62
2022/09/29 05:46:21;;;;;;;;;;;21.00;99.90;;;;;;4982403;28;20321;-66
2022/09/29 05:48:50;;;;;;;;;;;21.00;99.90;;;;;;4977588;28;20397;-64
2022/09/29 05:51:19;;;;;;;;;;;20.90;99.90;;;;;;4978799;28;19937;-63
2022/09/29 05:53:49;;;;;;;;;;;20.90;99.90;;;;;;4978488;28;19969;-67
2022/09/29 05:56:18;;;;;;;;;;;20.80;99.90;;;;;;4991596;28;19937;-65
2022/09/29 05:58:45;;;;;;;;;;;20.80;99.90;;;;;;4986555;28;19936;-66
2022/09/29 06:01:13;;;;;;;;;;;20.90;99.90;;;;;;4990667;28;20428;-67
2022/09/29 06:03:41;;;;;;;;;;;20.90;99.90;;;;;;4996288;28;19959;-65
2022/09/29 06:06:09;;;;;;;;;;;20.90;99.90;;;;;;4993555;28;19937;-71
2022/09/29 06:08:36;;;;;;;;;;;21.00;99.90;;;;;;4991641;28;19929;-68
2022/09/29 06:11:08;;;;;;;;;;;20.90;99.90;;;;;;4988969;28;19926;-64
2022/09/29 06:13:39;;;;;;;;;;;20.90;99.90;;;;;;4990388;28;19933;-65
2022/09/29 06:16:07;;;;;;;;;;;20.80;99.90;;;;;;4988472;28;19926;-65
2022/09/29 06:18:34;;;;;;;;;;;20.80;99.90;;;;;;4991400;28;20309;-68
2022/09/29 06:21:06;;;;;;;;;;;20.80;99.90;;;;;;4970626;28;19925;-67
2022/09/29 06:23:33;;;;;;;;;;;20.80;99.90;;;;;;4988600;28;20097;-68
2022/09/29 06:26:03;;;;;;;;;;;20.80;99.90;;;;;;4999569;28;19937;-67
2022/09/29 06:28:30;;;;;;;;;;;20.70;99.90;;;;;;4989150;28;19929;-65
2022/09/29 06:30:59;;;;;;;;;;;20.80;99.90;;;;;;4986231;28;19926;-68
2022/09/29 06:33:27;;;;;;;;;;;20.10;99.90;;;;;;4990971;28;19926;-66
2022/09/29 06:38:40;;;;;;;;;;;18.90;99.90;;;;;;4999098;28;19937;-66
2022/09/29 06:41:08;;;;;;;;;;;19.30;99.90;;;;;;4983805;28;19926;-66
2022/09/29 06:43:35;;;;;;;;;;;19.60;99.90;;;;;;4986253;28;19932;-66
2022/09/29 06:46:02;;;;;;;;;;;19.80;99.90;;;;;;4999442;28;19929;-65
2022/09/29 06:48:30;;;;;;;;;;;20.00;99.90;;;;;;4976580;28;19940;-65
2022/09/29 06:50:57;;;;;;;;;;;20.10;99.90;;;;;;4978419;28;20310;-65
2022/09/29 06:53:35;;;;;;;;;;;20.20;99.90;;;;;;4996923;28;19937;-63
2022/09/29 06:56:05;;;;;;;;;;;20.20;99.90;;;;;;5008596;28;19933;-66
2022/09/29 06:58:32;;;;;;;;;;;20.30;99.90;;;;;;5007663;28;19930;-66
2022/09/29 07:01:00;;;;;;;;;;;20.30;99.90;;;;;;5008791;28;20400;-67
2022/09/29 07:03:28;;;;;;;;;;;20.30;99.90;;;;;;5008369;28;19934;-71
2022/09/29 07:05:56;;;;;;;;;;;20.30;99.90;;;;;;5004235;28;19929;-70
2022/09/29 07:08:43;;;;;;;;;;;20.30;99.90;;;;;;4998604;28;19926;-65
2022/09/29 07:11:10;;;;;;;;;;;20.30;99.90;;;;;;4996563;28;19933;-66
2022/09/29 07:13:37;;;;;;;;;;;20.30;99.90;;;;;;4997141;28;19929;-68
2022/09/29 07:16:11;;;;;;;;;;;20.20;99.90;;;;;;4991457;28;19933;-64
2022/09/29 07:18:39;;;;;;;;;;;20.20;99.90;;;;;;4987489;28;19933;-65
2022/09/29 07:21:09;;;;;;;;;;;20.20;99.90;;;;;;4987457;28;20399;-66
2022/09/29 07:23:37;;;;;;;;;;;20.20;99.90;;;;;;4988391;28;20550;-63
2022/09/29 07:26:05;;;;;;;;;;;20.20;99.90;;;;;;4991614;28;20378;-66
2022/09/29 07:28:32;;;;;;;;;;;20.20;99.90;;;;;;4969699;28;19930;-63
2022/09/29 07:31:18;;;;;;;;;;;20.20;99.90;;;;;;5000526;28;19960;-64
2022/09/29 07:33:46;;;;;;;;;;;20.20;99.90;;;;;;5004496;28;19929;-66
2022/09/29 07:36:14;;;;;;;;;;;20.20;99.90;;;;;;4988330;28;20484;-66
2022/09/29 07:38:44;;;;;;;;;;;20.30;99.90;;;;;;4989772;28;19930;-65
2022/09/29 07:41:11;;;;;;;;;;;20.30;99.90;;;;;;4990124;28;19957;-67
2022/09/29 07:43:38;;;;;;;;;;;20.30;99.90;;;;;;4989311;28;20367;-67
2022/09/29 07:46:06;;;;;;;;;;;20.30;99.90;;;;;;4995903;28;19937;-64
2022/09/29 07:48:34;;;;;;;;;;;20.30;99.90;;;;;;4994294;28;19933;-68
2022/09/29 07:51:02;;;;;;;;;;;20.30;99.90;;;;;;4993183;28;19930;-67
2022/09/29 07:53:30;;;;;;;;;;;20.30;99.90;;;;;;4988128;28;19933;-68
2022/09/29 07:56:03;;;;;;;;;;;20.30;99.90;;;;;;4975011;28;20402;-67
2022/09/29 07:58:33;;;;;;;;;;;20.30;99.90;;;;;;4997343;28;19930;-66
2022/09/29 08:01:00;;;;;;;;;;;20.40;99.90;;;;;;4995132;28;19936;-67
2022/09/29 08:03:29;;;;;;;;;;;20.40;99.90;;;;;;4974460;28;19933;-65
2022/09/29 08:05:59;;;;;;;;;;;20.40;99.90;;;;;;4992044;28;19936;-67
2022/09/29 08:08:26;;;;;;;;;;;20.40;99.90;;;;;;4988596;28;19936;-66
2022/09/29 08:11:05;;;;;;;;;;;20.50;99.90;;;;;;4989650;28;19929;-65
2022/09/29 08:13:34;;;;;;;;;;;20.70;99.90;;;;;;4987870;28;19929;-63
2022/09/29 08:16:03;;;;;;;;;;;21.00;99.90;;;;;;4988947;28;20401;-64
2022/09/29 08:18:31;;;;;;;;;;;21.10;99.90;;;;;;4992818;28;20472;-61
2022/09/29 08:20:58;;;;;;;;;;;21.20;99.90;;;;;;4977468;28;19925;-63
2022/09/29 08:23:33;;;;;;;;;;;21.40;99.90;;;;;;4994001;28;19970;-63
2022/09/29 08:26:07;;;;;;;;;;;21.50;99.90;;;;;;4981245;28;19937;-63
2022/09/29 08:28:40;;;;;;;;;;;21.70;99.90;;;;;;4963356;28;19937;-69
2022/09/29 08:31:11;;;;;;;;;;;21.80;99.90;;;;;;4973464;28;20322;-67
2022/09/29 08:33:38;;;;;;;;;;;21.90;99.90;;;;;;4965530;28;19933;-69
2022/09/29 08:36:13;;;;;;;;;;;22.00;99.90;;;;;;4971962;28;19968;-69
2022/09/29 08:38:44;;;;;;;;;;;22.00;99.90;;;;;;4968847;28;19934;-69
2022/09/29 08:41:19;;;;;;;;;;;22.00;99.90;;;;;;4969569;28;19930;-65
2022/09/29 08:43:46;;;;;;;;;;;22.00;99.90;;;;;;4967335;28;19937;-65
2022/09/29 08:46:26;;;;;;;;;;;22.00;99.90;;;;;;4975491;28;20414;-64
2022/09/29 08:49:05;;;;;;;;;;;22.00;99.90;;;;;;4968727;28;19937;-66
2022/09/29 08:51:35;;;;;;;;;;;22.00;99.90;;;;;;4975730;28;20305;-68
2022/09/29 08:54:19;;;;;;;;;;;22.00;99.90;;;;;;4980437;28;19934;-64
2022/09/29 08:57:05;;;;;;;;;;;22.00;99.90;;;;;;4970307;28;19926;-67
2022/09/29 08:59:32;;;;;;;;;;;22.00;99.90;;;;;;4970192;28;19937;-63
2022/09/29 09:02:05;;;;;;;;;;;22.00;99.90;;;;;;4971053;28;20322;-65
2022/09/29 09:04:33;;;;;;;;;;;22.00;99.90;;;;;;4979245;28;19926;-57
2022/09/29 09:07:07;;;;;;;;;;;21.90;99.90;;;;;;4983210;28;19936;-68
2022/09/29 09:09:34;;;;;;;;;;;21.90;99.90;;;;;;4981135;28;19937;-66
2022/09/29 09:15:04;;;;;;;;;;;21.90;99.90;;;;;;4931300;29;19927;-71
2022/09/29 09:17:34;;;;;;;;;;;21.90;99.90;;;;;;4934390;29;20338;-70
2022/09/29 09:20:20;;;;;;;;;;;21.80;99.90;;;;;;4930488;29;19938;-69
2022/09/29 09:22:54;;;;;;;;;;;21.80;99.90;;;;;;4930068;29;20413;-71
2022/09/29 09:25:32;;;;;;;;;;;21.80;99.90;;;;;;4946411;29;19942;-70
2022/09/29 09:28:04;;;;;;;;;;;21.70;99.90;;;;;;4945530;28;19938;-68
2022/09/29 09:30:37;;;;;;;;;;;21.70;99.90;;;;;;4940249;28;19938;-70
2022/09/29 09:33:08;;;;;;;;;;;21.70;99.90;;;;;;4921171;29;19934;-71
2022/09/29 09:35:46;;;;;;;;;;;21.60;99.90;;;;;;4930862;29;20410;-71
2022/09/29 09:38:27;;;;;;;;;;;21.50;99.90;;;;;;4930894;29;20327;-71
2022/09/29 09:40:56;;;;;;;;;;;21.40;99.90;;;;;;4928776;29;19927;-68
2022/09/29 09:43:30;;;;;;;;;;;21.30;99.90;;;;;;4939129;29;20323;-70
2022/09/29 09:46:10;;;;;;;;;;;21.30;99.90;;;;;;4936603;29;19931;-69
2022/09/29 09:48:41;;;;;;;;;;;21.30;99.90;;;;;;4932785;29;20314;-72
2022/09/29 09:51:29;;;;;;;;;;;21.40;99.90;;;;;;4933106;29;19931;-67
2022/09/29 09:53:57;;;;;;;;;;;21.40;99.90;;;;;;4901186;29;19938;-69
2022/09/29 09:56:25;;;;;;;;;;;21.40;99.90;;;;;;4934052;29;19934;-72
2022/09/29 09:58:58;;;;;;;;;;;21.40;99.90;;;;;;4923472;29;19939;-71
2022/09/29 10:01:25;;;;;;;;;;;21.40;99.90;;;;;;4935291;29;20350;-72
2022/09/29 10:03:53;;;;;;;;;;;21.40;99.90;;;;;;4934434;29;19930;-72
2022/09/29 10:06:20;;;;;;;;;;;21.40;99.90;;;;;;4932372;29;20671;-69
2022/09/29 10:08:48;;;;;;;;;;;21.40;99.90;;;;;;4941054;29;19930;-71
2022/09/29 10:11:23;;;;;;;;;;;21.30;99.90;;;;;;4930313;29;19942;-72
2022/09/29 10:14:12;;;;;;;;;;;21.30;99.90;;;;;;4948898;28;20355;-68
2022/09/29 10:16:47;;;;;;;;;;;21.30;99.90;;;;;;4957414;28;20419;-70
2022/09/29 10:19:19;;;;;;;;;;;21.30;99.90;;;;;;4946635;28;19942;-69
2022/09/29 10:21:47;;;;;;;;;;;21.20;99.90;;;;;;4954633;28;19934;-69
2022/09/29 10:24:26;;;;;;;;;;;21.20;99.90;;;;;;4947530;28;20159;-70
2022/09/29 10:26:55;;;;;;;;;;;21.20;99.90;;;;;;4948930;28;19978;-69
2022/09/29 10:29:22;;;;;;;;;;;21.20;99.90;;;;;;4954705;28;19930;-70
2022/09/29 10:31:59;;;;;;;;;;;21.20;99.90;;;;;;4947940;28;20424;-69
2022/09/29 10:34:27;;;;;;;;;;;21.10;99.90;;;;;;4948253;28;20390;-71
2022/09/29 10:36:54;;;;;;;;;;;21.10;99.90;;;;;;4957192;28;19933;-71
2022/09/29 10:39:42;;;;;;;;;;;21.10;99.90;;;;;;4949423;28;19931;-71
2022/09/29 10:42:16;;;;;;;;;;;21.10;99.90;;;;;;4935413;28;19927;-71
2022/09/29 10:44:48;;;;;;;;;;;21.20;99.90;;;;;;4953210;28;20314;-71
2022/09/29 10:47:15;;;;;;;;;;;21.20;99.90;;;;;;4955111;28;19941;-71
2022/09/29 10:49:43;;;;;;;;;;;21.20;99.90;;;;;;4956505;28;19932;-71
2022/09/29 10:52:22;;;;;;;;;;;21.20;99.90;;;;;;4960052;28;20309;-73
2022/09/29 10:54:59;;;;;;;;;;;21.20;99.90;;;;;;4964824;28;19926;-72
2022/09/29 10:57:28;;;;;;;;;;;21.30;99.90;;;;;;4963262;28;19930;-71
2022/09/29 10:59:56;;;;;;;;;;;21.30;99.90;;;;;;4945856;28;19941;-70
2022/09/29 11:02:27;;;;;;;;;;;21.40;99.90;;;;;;4953310;28;19926;-68
2022/09/29 11:04:56;;;;;;;;;;;21.40;99.90;;;;;;4951814;28;19949;-68
2022/09/29 11:07:23;;;;;;;;;;;21.40;99.90;;;;;;4926954;28;19931;-67
2022/09/29 11:09:53;;;;;;;;;;;20.60;99.90;;;;;;4949177;28;19953;-69
2022/09/29 11:12:28;;;;;;;;;;;20.30;99.90;;;;;;4946463;28;19930;-70
2022/09/29 11:14:55;;;;;;;;;;;20.40;99.90;;;;;;4945337;28;19935;-70
2022/09/29 11:17:22;;;;;;;;;;;20.70;99.90;;;;;;4953424;28;20318;-67
2022/09/29 11:19:50;;;;;;;;;;;20.90;99.90;;;;;;4950101;28;19938;-68
2022/09/29 11:22:18;;;;;;;;;;;21.10;99.90;;;;;;4950739;28;20252;-66
2022/09/29 11:25:17;;;;;;;;;;;21.20;99.90;;;;;;4950071;28;19934;-70
2022/09/29 11:28:17;;;;;;;;;;;21.30;99.90;;;;;;4934018;28;19930;-72
2022/09/29 11:30:58;;;;;;;;;;;21.40;99.90;;;;;;4935728;28;20310;-70
2022/09/29 11:33:34;;;;;;;;;;;21.40;99.90;;;;;;4946864;28;19934;-61
2022/09/29 11:36:17;;;;;;;;;;;21.40;99.90;;;;;;4950281;28;19938;-67
2022/09/29 11:38:47;;;;;;;;;;;21.40;99.90;;;;;;4950776;28;19936;-66
2022/09/29 11:41:33;;;;;;;;;;;21.40;99.90;;;;;;4950062;28;19957;-70
2022/09/29 11:44:00;;;;;;;;;;;21.50;99.90;;;;;;4956634;28;19931;-67
2022/09/29 11:46:30;;;;;;;;;;;21.40;99.90;;;;;;4947619;28;20046;-69
2022/09/29 11:49:16;;;;;;;;;;;21.40;99.90;;;;;;4946592;28;19930;-70
2022/09/29 11:51:58;;;;;;;;;;;21.40;99.90;;;;;;4957563;28;19934;-68
2022/09/29 11:54:28;;;;;;;;;;;21.30;99.90;;;;;;4961399;28;19937;-72
2022/09/29 11:56:59;;;;;;;;;;;21.30;99.90;;;;;;4968387;28;19934;-71
2022/09/29 11:59:33;;;;;;;;;;;21.40;99.90;;;;;;4960724;28;19934;-64
2022/09/29 12:02:19;;;;;;;;;;;21.40;99.90;;;;;;4953215;28;20410;-65
2022/09/29 12:04:55;;;;;;;;;;;21.40;99.90;;;;;;4955452;28;20314;-66
2022/09/29 12:07:45;;;;;;;;;;;21.40;99.90;;;;;;4959911;28;19941;-69
2022/09/29 12:10:15;;;;;;;;;;;21.30;99.90;;;;;;4949142;28;19926;-71
2022/09/29 12:12:43;;;;;;;;;;;21.40;99.90;;;;;;4944070;28;19931;-71
2022/09/29 12:15:33;;;;;;;;;;;21.30;99.90;;;;;;4948175;28;19926;-71
2022/09/29 12:18:17;;;;;;;;;;;21.30;99.90;;;;;;4924575;28;19935;-68
2022/09/29 12:20:46;;;;;;;;;;;21.40;99.90;;;;;;4948280;28;19953;-68
2022/09/29 12:23:15;;;;;;;;;;;21.40;99.90;;;;;;4934518;28;19933;-68
2022/09/29 12:25:47;;;;;;;;;;;21.40;99.90;;;;;;4946862;28;19937;-68
2022/09/29 12:28:17;;;;;;;;;;;21.40;99.90;;;;;;4953153;28;19933;-66
2022/09/29 12:30:51;;;;;;;;;;;21.30;99.90;;;;;;4949519;28;19927;-70
2022/09/29 12:33:29;;;;;;;;;;;21.30;99.90;;;;;;4946090;28;19934;-71
2022/09/29 12:36:42;;;;;;;;;;;21.30;99.90;;;;;;4950750;28;21393;-71
2022/09/29 12:38:55;;;;;;;;;;;21.30;99.90;;;;;;4944209;28;19930;-71
2022/09/29 12:41:25;;;;;;;;;;;21.30;99.90;;;;;;4947228;28;19931;-70
2022/09/29 12:43:57;;;;;;;;;;;21.30;99.90;;;;;;4946302;28;19930;-70
2022/09/29 12:46:30;;;;;;;;;;;21.30;99.90;;;;;;4950795;28;20218;-68
2022/09/29 12:49:01;;;;;;;;;;;21.40;99.90;;;;;;4948306;28;19930;-74
2022/09/29 12:51:27;;;;;;;;;;;21.40;99.90;;;;;;4945636;28;19934;-67
2022/09/29 12:54:14;;;;;;;;;;;21.50;99.90;;;;;;4958771;28;19926;-67
2022/09/29 12:56:44;;;;;;;;;;;21.40;99.90;;;;;;4947038;28;19931;-68
2022/09/29 12:59:28;;;;;;;;;;;21.40;99.90;;;;;;4944822;28;19934;-68
2022/09/29 13:01:56;;;;;;;;;;;21.40;99.90;;;;;;4951422;28;19926;-65
2022/09/29 13:04:42;;;;;;;;;;;21.40;99.90;;;;;;4947486;28;19937;-68
2022/09/29 13:07:24;;;;;;;;;;;21.50;99.90;;;;;;4958563;28;19933;-68
2022/09/29 13:09:58;;;;;;;;;;;21.60;99.90;;;;;;4946711;28;19930;-64
2022/09/29 13:12:40;;;;;;;;;;;21.60;99.90;;;;;;4947532;28;19934;-67
2022/09/29 13:15:23;;;;;;;;;;;21.70;99.90;;;;;;4945332;28;19930;-69
2022/09/29 13:17:56;;;;;;;;;;;21.70;99.90;;;;;;4948983;28;19934;-70
2022/09/29 13:20:42;;;;;;;;;;;21.70;99.90;;;;;;4940311;28;19931;-68
2022/09/29 13:23:18;;;;;;;;;;;21.70;99.90;;;;;;4931542;28;19933;-69
2022/09/29 13:26:09;;;;;;;;;;;21.70;99.90;;;;;;4951792;28;19945;-74
2022/09/29 13:28:43;;;;;;;;;;;21.70;99.90;;;;;;4933040;29;20195;-71
2022/09/29 13:31:12;;;;;;;;;;;21.70;99.90;;;;;;4949748;28;19999;-74
2022/09/29 13:33:40;;;;;;;;;;;21.70;99.90;;;;;;4950677;28;20117;-73
2022/09/29 13:36:07;;;;;;;;;;;21.60;99.90;;;;;;4944556;28;19933;-67
2022/09/29 13:38:36;;;;;;;;;;;21.70;99.90;;;;;;4943953;28;19930;-77
2022/09/29 13:41:11;;;;;;;;;;;21.60;99.90;;;;;;4948403;28;19930;-70
2022/09/29 13:43:41;;;;;;;;;;;21.60;99.90;;;;;;4953503;28;19927;-70
2022/09/29 13:46:27;;;;;;;;;;;21.50;99.90;;;;;;4952137;28;19933;-72
2022/09/29 13:49:00;;;;;;;;;;;21.50;99.90;;;;;;4949354;28;19927;-69
2022/09/29 13:51:47;;;;;;;;;;;21.50;99.90;;;;;;4949504;28;20465;-71
2022/09/29 13:54:23;;;;;;;;;;;21.50;99.90;;;;;;4952692;28;19946;-73
2022/09/29 13:57:02;;;;;;;;;;;21.50;99.90;;;;;;4953657;28;19937;-71
2022/09/29 13:59:30;;;;;;;;;;;21.50;99.90;;;;;;4955201;28;19926;-75
2022/09/29 14:01:57;;;;;;;;;;;21.50;99.90;;;;;;4956987;28;19931;-69
2022/09/29 14:04:50;;;;;;;;;;;21.50;99.90;;;;;;4958549;28;19926;-66
2022/09/29 14:07:36;;;;;;;;;;;21.40;99.90;;;;;;4948069;28;19926;-67
2022/09/29 14:10:05;;;;;;;;;;;21.40;99.90;;;;;;4950236;28;19931;-69
2022/09/29 14:12:33;;;;;;;;;;;21.40;99.90;;;;;;4967789;28;19938;-72
2022/09/29 14:15:01;;;;;;;;;;;21.30;99.90;;;;;;4954181;28;19933;-67
2022/09/29 14:17:41;;;;;;;;;;;21.30;99.90;;;;;;4945213;28;19934;-69
2022/09/29 14:20:11;;;;;;;;;;;21.30;99.90;;;;;;4959843;28;19933;-68
2022/09/29 14:22:44;;;;;;;;;;;21.40;99.90;;;;;;4945224;28;20374;-68
2022/09/29 14:25:13;;;;;;;;;;;21.40;99.90;;;;;;4931723;28;19950;-67
2022/09/29 14:27:57;;;;;;;;;;;21.40;99.90;;;;;;4951785;28;19937;-68
2022/09/29 14:30:31;;;;;;;;;;;21.40;99.90;;;;;;4958747;28;20298;-67
2022/09/29 14:33:07;;;;;;;;;;;21.40;99.90;;;;;;4950897;28;19938;-67
2022/09/29 14:35:35;;;;;;;;;;;21.40;99.90;;;;;;4945263;28;19926;-69
2022/09/29 14:38:08;;;;;;;;;;;21.40;99.90;;;;;;4954563;28;19933;-70
2022/09/29 14:40:35;;;;;;;;;;;21.50;99.90;;;;;;4937778;29;19931;-73
2022/09/29 14:43:15;;;;;;;;;;;21.50;99.90;;;;;;4956738;28;19961;-68
2022/09/29 14:51:59;;;;;;;;;;;21.50;99.90;;;;;;4949461;28;19934;-69
2022/09/29 14:54:31;;;;;;;;;;;21.50;99.90;;;;;;4954123;28;19965;-67